sensor_id;sensor_type;location;lat;lon;timestamp;temperature;humidity
39067;DHT22;24821;51.988;6.020;2022-11-20T00:00:25;-0.40;99.90
39067;DHT22;24821;51.988;6.020;2022-11-20T00:02:50;-0.40;99.90
39067;DHT22;24821;51.988;6.020;2022-11-20T00:05:16;-0.40;99.90
39067;DHT22;24821;51.988;6.020;2022-11-20T00:07:42;-0.40;99.90
39067;DHT22;24821;51.988;6.020;2022-11-20T00:10:08;-0.40;99.90
39067;DHT22;24821;51.988;6.020;2022-11-20T00:12:34;-0.40;99.90
39067;DHT22;24821;51.988;6.020;2022-11-20T00:14:59;-0.50;99.90
39067;DHT22;24821;51.988;6.020;2022-11-20T00:17:25;-0.50;99.90
39067;DHT22;24821;51.988;6.020;2022-11-20T00:19:50;-0.50;99.90
39067;DHT22;24821;51.988;6.020;2022-11-20T00:22:16;-0.60;99.90
39067;DHT22;24821;51.988;6.020;2022-11-20T00:24:41;-0.60;99.90
39067;DHT22;24821;51.988;6.020;2022-11-20T00:27:07;-0.60;99.90
39067;DHT22;24821;51.988;6.020;2022-11-20T00:29:32;-0.60;99.90
39067;DHT22;24821;51.988;6.020;2022-11-20T00:31:58;-0.60;99.90
39067;DHT22;24821;51.988;6.020;2022-11-20T00:34:23;-0.60;99.90
39067;DHT22;24821;51.988;6.020;2022-11-20T00:36:49;-0.60;99.90
39067;DHT22;24821;51.988;6.020;2022-11-20T00:39:14;-0.70;99.90
39067;DHT22;24821;51.988;6.020;2022-11-20T00:41:40;-0.60;99.90
39067;DHT22;24821;51.988;6.020;2022-11-20T00:44:06;-0.60;99.90
39067;DHT22;24821;51.988;6.020;2022-11-20T00:46:31;-0.60;99.90
39067;DHT22;24821;51.988;6.020;2022-11-20T00:48:57;-0.60;99.90
39067;DHT22;24821;51.988;6.020;2022-11-20T00:51:24;-0.70;99.90
39067;DHT22;24821;51.988;6.020;2022-11-20T00:53:50;-0.70;99.90
39067;DHT22;24821;51.988;6.020;2022-11-20T00:56:18;-0.80;99.90
39067;DHT22;24821;51.988;6.020;2022-11-20T00:58:46;-0.70;99.90
39067;DHT22;24821;51.988;6.020;2022-11-20T01:03:44;-0.70;99.90
39067;DHT22;24821;51.988;6.020;2022-11-20T01:08:49;-0.80;99.90
39067;DHT22;24821;51.988;6.020;2022-11-20T01:11:19;-0.80;99.90
39067;DHT22;24821;51.988;6.020;2022-11-20T01:13:48;-0.80;99.90
39067;DHT22;24821;51.988;6.020;2022-11-20T01:16:25;-0.80;99.90
39067;DHT22;24821;51.988;6.020;2022-11-20T01:18:53;-0.80;99.90
39067;DHT22;24821;51.988;6.020;2022-11-20T01:21:27;-0.90;99.90
39067;DHT22;24821;51.988;6.020;2022-11-20T01:23:53;-0.90;99.90
39067;DHT22;24821;51.988;6.020;2022-11-20T01:26:22;-0.90;99.90
39067;DHT22;24821;51.988;6.020;2022-11-20T01:28:48;-1.00;99.90
39067;DHT22;24821;51.988;6.020;2022-11-20T01:33:55;-0.90;99.90
39067;DHT22;24821;51.988;6.020;2022-11-20T01:36:24;-0.90;99.90
39067;DHT22;24821;51.988;6.020;2022-11-20T01:38:55;-1.00;99.90
39067;DHT22;24821;51.988;6.020;2022-11-20T01:41:22;-1.00;99.90
39067;DHT22;24821;51.988;6.020;2022-11-20T01:44:06;-1.00;99.90
39067;DHT22;24821;51.988;6.020;2022-11-20T01:46:37;-1.00;99.90
39067;DHT22;24821;51.988;6.020;2022-11-20T01:49:16;-1.10;99.90
39067;DHT22;24821;51.988;6.020;2022-11-20T01:51:47;-1.10;99.90
39067;DHT22;24821;51.988;6.020;2022-11-20T01:54:25;-1.20;99.90
39067;DHT22;24821;51.988;6.020;2022-11-20T01:56:55;-1.20;99.90
39067;DHT22;24821;51.988;6.020;2022-11-20T01:59:22;-1.20;99.90
39067;DHT22;24821;51.988;6.020;2022-11-20T02:01:49;-1.20;99.90
39067;DHT22;24821;51.988;6.020;2022-11-20T02:04:15;-1.20;99.90
39067;DHT22;24821;51.988;6.020;2022-11-20T02:06:47;-1.20;99.90
39067;DHT22;24821;51.988;6.020;2022-11-20T02:09:15;-1.30;99.90
39067;DHT22;24821;51.988;6.020;2022-11-20T02:11:40;-1.30;99.90
39067;DHT22;24821;51.988;6.020;2022-11-20T02:14:06;-1.30;99.90
39067;DHT22;24821;51.988;6.020;2022-11-20T02:16:37;-1.30;99.90
39067;DHT22;24821;51.988;6.020;2022-11-20T02:19:07;-1.20;99.90
39067;DHT22;24821;51.988;6.020;2022-11-20T02:24:37;-1.20;99.90
39067;DHT22;24821;51.988;6.020;2022-11-20T02:27:09;-1.30;99.90
39067;DHT22;24821;51.988;6.020;2022-11-20T02:29:58;-1.30;99.90
39067;DHT22;24821;51.988;6.020;2022-11-20T02:32:28;-1.30;99.90
39067;DHT22;24821;51.988;6.020;2022-11-20T02:34:54;-1.30;99.90
39067;DHT22;24821;51.988;6.020;2022-11-20T02:37:20;-1.30;99.90
39067;DHT22;24821;51.988;6.020;2022-11-20T02:39:47;-1.30;99.90
39067;DHT22;24821;51.988;6.020;2022-11-20T02:42:14;-1.40;99.90
39067;DHT22;24821;51.988;6.020;2022-11-20T02:44:40;-1.40;99.90
39067;DHT22;24821;51.988;6.020;2022-11-20T02:47:05;-1.40;99.90
39067;DHT22;24821;51.988;6.020;2022-11-20T02:49:31;-1.40;99.90
39067;DHT22;24821;51.988;6.020;2022-11-20T02:51:57;-1.40;99.90
39067;DHT22;24821;51.988;6.020;2022-11-20T02:54:23;-1.40;99.90
39067;DHT22;24821;51.988;6.020;2022-11-20T02:56:49;-1.40;99.90
39067;DHT22;24821;51.988;6.020;2022-11-20T02:59:14;-1.40;99.90
39067;DHT22;24821;51.988;6.020;2022-11-20T03:01:40;-1.40;99.90
39067;DHT22;24821;51.988;6.020;2022-11-20T03:04:05;-1.40;99.90
39067;DHT22;24821;51.988;6.020;2022-11-20T03:06:31;-1.50;99.90
39067;DHT22;24821;51.988;6.020;2022-11-20T03:08:57;-1.50;99.90
39067;DHT22;24821;51.988;6.020;2022-11-20T03:11:22;-1.50;99.90
39067;DHT22;24821;51.988;6.020;2022-11-20T03:13:48;-1.50;99.90
39067;DHT22;24821;51.988;6.020;2022-11-20T03:16:20;-1.50;99.90
39067;DHT22;24821;51.988;6.020;2022-11-20T03:18:46;-1.50;99.90
39067;DHT22;24821;51.988;6.020;2022-11-20T03:21:13;-1.50;99.90
39067;DHT22;24821;51.988;6.020;2022-11-20T03:23:39;-1.60;99.90
39067;DHT22;24821;51.988;6.020;2022-11-20T03:26:13;-1.60;99.90
39067;DHT22;24821;51.988;6.020;2022-11-20T03:28:40;-1.60;99.90
39067;DHT22;24821;51.988;6.020;2022-11-20T03:31:11;-1.70;99.90
39067;DHT22;24821;51.988;6.020;2022-11-20T03:33:38;-1.70;99.90
39067;DHT22;24821;51.988;6.020;2022-11-20T03:36:06;-1.70;99.90
39067;DHT22;24821;51.988;6.020;2022-11-20T03:38:32;-1.70;99.90
39067;DHT22;24821;51.988;6.020;2022-11-20T03:41:03;-1.70;99.90
39067;DHT22;24821;51.988;6.020;2022-11-20T03:43:29;-1.70;99.90
39067;DHT22;24821;51.988;6.020;2022-11-20T03:45:55;-1.70;99.90
39067;DHT22;24821;51.988;6.020;2022-11-20T03:48:20;-1.70;99.90
39067;DHT22;24821;51.988;6.020;2022-11-20T03:50:46;-1.80;99.90
39067;DHT22;24821;51.988;6.020;2022-11-20T03:53:13;-1.70;99.90
39067;DHT22;24821;51.988;6.020;2022-11-20T03:55:39;-1.80;99.90
39067;DHT22;24821;51.988;6.020;2022-11-20T03:58:04;-1.80;99.90
39067;DHT22;24821;51.988;6.020;2022-11-20T04:00:30;-1.80;99.90
39067;DHT22;24821;51.988;6.020;2022-11-20T04:02:59;-1.80;99.90
39067;DHT22;24821;51.988;6.020;2022-11-20T04:05:25;-1.80;99.90
39067;DHT22;24821;51.988;6.020;2022-11-20T04:07:50;-1.80;99.90
39067;DHT22;24821;51.988;6.020;2022-11-20T04:10:16;-1.80;99.90
39067;DHT22;24821;51.988;6.020;2022-11-20T04:12:42;-1.80;99.90
39067;DHT22;24821;51.988;6.020;2022-11-20T04:15:08;-1.90;99.90
39067;DHT22;24821;51.988;6.020;2022-11-20T04:17:33;-1.90;99.90
39067;DHT22;24821;51.988;6.020;2022-11-20T04:19:59;-1.90;99.90
39067;DHT22;24821;51.988;6.020;2022-11-20T04:22:25;-1.90;99.90
39067;DHT22;24821;51.988;6.020;2022-11-20T04:24:50;-2.00;99.90
39067;DHT22;24821;51.988;6.020;2022-11-20T04:27:16;-2.00;99.90
39067;DHT22;24821;51.988;6.020;2022-11-20T04:29:41;-2.00;99.90
39067;DHT22;24821;51.988;6.020;2022-11-20T04:32:07;-2.00;99.90
39067;DHT22;24821;51.988;6.020;2022-11-20T04:34:33;-2.00;99.90
39067;DHT22;24821;51.988;6.020;2022-11-20T04:36:58;-2.00;99.90
39067;DHT22;24821;51.988;6.020;2022-11-20T04:39:24;-2.00;99.90
39067;DHT22;24821;51.988;6.020;2022-11-20T04:41:49;-2.10;99.90
39067;DHT22;24821;51.988;6.020;2022-11-20T04:44:35;-2.10;99.90
39067;DHT22;24821;51.988;6.020;2022-11-20T04:47:00;-2.10;99.90
39067;DHT22;24821;51.988;6.020;2022-11-20T04:49:26;-2.10;99.90
39067;DHT22;24821;51.988;6.020;2022-11-20T04:51:53;-2.20;99.90
39067;DHT22;24821;51.988;6.020;2022-11-20T04:54:19;-2.20;99.90
39067;DHT22;24821;51.988;6.020;2022-11-20T04:56:47;-2.10;99.90
39067;DHT22;24821;51.988;6.020;2022-11-20T04:59:13;-2.10;99.90
39067;DHT22;24821;51.988;6.020;2022-11-20T05:01:38;-2.10;99.90
39067;DHT22;24821;51.988;6.020;2022-11-20T05:04:04;-2.10;99.90
39067;DHT22;24821;51.988;6.020;2022-11-20T05:06:31;-2.10;99.90
39067;DHT22;24821;51.988;6.020;2022-11-20T05:08:56;-2.10;99.90
39067;DHT22;24821;51.988;6.020;2022-11-20T05:11:22;-2.10;99.90
39067;DHT22;24821;51.988;6.020;2022-11-20T05:13:49;-2.10;99.90
39067;DHT22;24821;51.988;6.020;2022-11-20T05:16:19;-2.20;99.90
39067;DHT22;24821;51.988;6.020;2022-11-20T05:18:45;-2.20;99.90
39067;DHT22;24821;51.988;6.020;2022-11-20T05:21:12;-2.20;99.90
39067;DHT22;24821;51.988;6.020;2022-11-20T05:23:38;-2.20;99.90
39067;DHT22;24821;51.988;6.020;2022-11-20T05:26:06;-2.20;99.90
39067;DHT22;24821;51.988;6.020;2022-11-20T05:28:33;-2.20;99.90
39067;DHT22;24821;51.988;6.020;2022-11-20T05:31:10;-2.30;99.90
39067;DHT22;24821;51.988;6.020;2022-11-20T05:33:36;-2.30;99.90
39067;DHT22;24821;51.988;6.020;2022-11-20T05:36:03;-2.30;99.90
39067;DHT22;24821;51.988;6.020;2022-11-20T05:38:29;-2.30;99.90
39067;DHT22;24821;51.988;6.020;2022-11-20T05:40:54;-2.30;99.90
39067;DHT22;24821;51.988;6.020;2022-11-20T05:43:20;-2.30;99.90
39067;DHT22;24821;51.988;6.020;2022-11-20T05:45:53;-2.30;99.90
39067;DHT22;24821;51.988;6.020;2022-11-20T05:48:19;-2.30;99.90
39067;DHT22;24821;51.988;6.020;2022-11-20T05:50:44;-2.40;99.90
39067;DHT22;24821;51.988;6.020;2022-11-20T05:53:10;-2.40;99.90
39067;DHT22;24821;51.988;6.020;2022-11-20T05:55:35;-2.40;99.90
39067;DHT22;24821;51.988;6.020;2022-11-20T05:58:01;-2.40;99.90
39067;DHT22;24821;51.988;6.020;2022-11-20T06:00:26;-2.30;99.90
39067;DHT22;24821;51.988;6.020;2022-11-20T06:02:52;-2.30;99.90
39067;DHT22;24821;51.988;6.020;2022-11-20T06:05:17;-2.30;99.90
39067;DHT22;24821;51.988;6.020;2022-11-20T06:07:43;-2.30;99.90
39067;DHT22;24821;51.988;6.020;2022-11-20T06:10:09;-2.30;99.90
39067;DHT22;24821;51.988;6.020;2022-11-20T06:12:35;-2.30;99.90
39067;DHT22;24821;51.988;6.020;2022-11-20T06:15:00;-2.40;99.90
39067;DHT22;24821;51.988;6.020;2022-11-20T06:17:26;-2.40;99.90
39067;DHT22;24821;51.988;6.020;2022-11-20T06:19:51;-2.40;99.90
39067;DHT22;24821;51.988;6.020;2022-11-20T06:22:17;-2.40;99.90
39067;DHT22;24821;51.988;6.020;2022-11-20T06:24:43;-2.40;99.90
39067;DHT22;24821;51.988;6.020;2022-11-20T06:27:08;-2.40;99.90
39067;DHT22;24821;51.988;6.020;2022-11-20T06:29:34;-2.50;99.90
39067;DHT22;24821;51.988;6.020;2022-11-20T06:32:00;-2.50;99.90
39067;DHT22;24821;51.988;6.020;2022-11-20T06:34:26;-2.50;99.90
39067;DHT22;24821;51.988;6.020;2022-11-20T06:36:51;-2.50;99.90
39067;DHT22;24821;51.988;6.020;2022-11-20T06:39:17;-2.50;99.90
39067;DHT22;24821;51.988;6.020;2022-11-20T06:41:43;-2.50;99.90
39067;DHT22;24821;51.988;6.020;2022-11-20T06:44:09;-2.50;99.90
39067;DHT22;24821;51.988;6.020;2022-11-20T06:46:34;-2.50;99.90
39067;DHT22;24821;51.988;6.020;2022-11-20T06:49:00;-2.60;99.90
39067;DHT22;24821;51.988;6.020;2022-11-20T06:51:25;-2.60;99.90
39067;DHT22;24821;51.988;6.020;2022-11-20T06:53:51;-2.60;99.90
39067;DHT22;24821;51.988;6.020;2022-11-20T06:56:17;-2.60;99.90
39067;DHT22;24821;51.988;6.020;2022-11-20T06:58:42;-2.60;99.90
39067;DHT22;24821;51.988;6.020;2022-11-20T07:01:13;-2.60;99.90
39067;DHT22;24821;51.988;6.020;2022-11-20T07:03:39;-2.50;99.90
39067;DHT22;24821;51.988;6.020;2022-11-20T07:06:05;-2.50;99.90
39067;DHT22;24821;51.988;6.020;2022-11-20T07:08:31;-2.50;99.90
39067;DHT22;24821;51.988;6.020;2022-11-20T07:10:59;-2.40;99.90
39067;DHT22;24821;51.988;6.020;2022-11-20T07:13:26;-2.40;99.90
39067;DHT22;24821;51.988;6.020;2022-11-20T07:15:52;-2.40;99.90
39067;DHT22;24821;51.988;6.020;2022-11-20T07:18:17;-2.30;99.90
39067;DHT22;24821;51.988;6.020;2022-11-20T07:20:43;-2.30;99.90
39067;DHT22;24821;51.988;6.020;2022-11-20T07:23:08;-2.20;99.90
39067;DHT22;24821;51.988;6.020;2022-11-20T07:25:34;-2.20;99.90
39067;DHT22;24821;51.988;6.020;2022-11-20T07:28:00;-2.10;99.90
39067;DHT22;24821;51.988;6.020;2022-11-20T07:30:27;-2.10;99.90
39067;DHT22;24821;51.988;6.020;2022-11-20T07:32:53;-2.00;99.90
39067;DHT22;24821;51.988;6.020;2022-11-20T07:35:19;-2.00;99.90
39067;DHT22;24821;51.988;6.020;2022-11-20T07:37:45;-1.90;99.90
39067;DHT22;24821;51.988;6.020;2022-11-20T07:40:12;-1.90;99.90
39067;DHT22;24821;51.988;6.020;2022-11-20T07:42:38;-1.90;99.90
39067;DHT22;24821;51.988;6.020;2022-11-20T07:45:03;-1.90;99.90
39067;DHT22;24821;51.988;6.020;2022-11-20T07:47:35;-1.90;99.90
39067;DHT22;24821;51.988;6.020;2022-11-20T07:50:00;-1.90;99.90
39067;DHT22;24821;51.988;6.020;2022-11-20T07:52:26;-1.90;99.90
39067;DHT22;24821;51.988;6.020;2022-11-20T07:54:51;-1.90;99.90
39067;DHT22;24821;51.988;6.020;2022-11-20T07:57:17;-1.80;99.90
39067;DHT22;24821;51.988;6.020;2022-11-20T07:59:42;-1.80;99.90
39067;DHT22;24821;51.988;6.020;2022-11-20T08:02:10;-1.90;99.90
39067;DHT22;24821;51.988;6.020;2022-11-20T08:04:36;-1.90;99.90
39067;DHT22;24821;51.988;6.020;2022-11-20T08:07:02;-1.90;99.90
39067;DHT22;24821;51.988;6.020;2022-11-20T08:09:27;-1.90;99.90
39067;DHT22;24821;51.988;6.020;2022-11-20T08:11:54;-1.90;99.90
39067;DHT22;24821;51.988;6.020;2022-11-20T08:14:38;-1.90;99.90
39067;DHT22;24821;51.988;6.020;2022-11-20T08:17:04;-1.90;99.90
39067;DHT22;24821;51.988;6.020;2022-11-20T08:19:29;-1.80;99.90
39067;DHT22;24821;51.988;6.020;2022-11-20T08:21:55;-1.80;99.90
39067;DHT22;24821;51.988;6.020;2022-11-20T08:24:20;-1.70;99.90
39067;DHT22;24821;51.988;6.020;2022-11-20T08:26:46;-1.60;99.90
39067;DHT22;24821;51.988;6.020;2022-11-20T08:29:12;-1.50;99.90
39067;DHT22;24821;51.988;6.020;2022-11-20T08:31:38;-1.40;99.90
39067;DHT22;24821;51.988;6.020;2022-11-20T08:34:03;-1.40;99.90
39067;DHT22;24821;51.988;6.020;2022-11-20T08:36:33;-1.30;99.90
39067;DHT22;24821;51.988;6.020;2022-11-20T08:38:59;-1.30;99.90
39067;DHT22;24821;51.988;6.020;2022-11-20T08:41:24;-1.20;99.90
39067;DHT22;24821;51.988;6.020;2022-11-20T08:43:58;-1.10;99.90
39067;DHT22;24821;51.988;6.020;2022-11-20T08:46:26;-1.00;99.90
39067;DHT22;24821;51.988;6.020;2022-11-20T08:48:51;-1.00;99.90
39067;DHT22;24821;51.988;6.020;2022-11-20T08:51:18;-0.90;99.90
39067;DHT22;24821;51.988;6.020;2022-11-20T08:53:44;-0.90;99.90
39067;DHT22;24821;51.988;6.020;2022-11-20T08:56:10;-0.80;99.90
39067;DHT22;24821;51.988;6.020;2022-11-20T08:58:37;-0.80;99.90
39067;DHT22;24821;51.988;6.020;2022-11-20T09:01:02;-0.80;99.90
39067;DHT22;24821;51.988;6.020;2022-11-20T09:03:28;-0.70;99.90
39067;DHT22;24821;51.988;6.020;2022-11-20T09:05:58;-0.70;99.90
39067;DHT22;24821;51.988;6.020;2022-11-20T09:08:24;-0.60;99.90
39067;DHT22;24821;51.988;6.020;2022-11-20T09:10:53;-0.60;99.90
39067;DHT22;24821;51.988;6.020;2022-11-20T09:13:20;-0.50;99.90
39067;DHT22;24821;51.988;6.020;2022-11-20T09:15:46;-0.40;99.90
39067;DHT22;24821;51.988;6.020;2022-11-20T09:18:11;-0.40;99.90
39067;DHT22;24821;51.988;6.020;2022-11-20T09:20:38;-0.30;99.90
39067;DHT22;24821;51.988;6.020;2022-11-20T09:23:03;-0.10;99.90
39067;DHT22;24821;51.988;6.020;2022-11-20T09:25:29;0.00;99.90
39067;DHT22;24821;51.988;6.020;2022-11-20T09:27:56;0.00;99.90
39067;DHT22;24821;51.988;6.020;2022-11-20T09:30:21;0.00;99.90
39067;DHT22;24821;51.988;6.020;2022-11-20T09:32:47;0.10;99.90
39067;DHT22;24821;51.988;6.020;2022-11-20T09:35:12;0.10;99.90
39067;DHT22;24821;51.988;6.020;2022-11-20T09:37:39;0.20;99.90
39067;DHT22;24821;51.988;6.020;2022-11-20T09:40:06;0.20;99.90
39067;DHT22;24821;51.988;6.020;2022-11-20T09:50:33;0.40;99.90
39067;DHT22;24821;51.988;6.020;2022-11-20T09:56:03;0.50;99.90
39067;DHT22;24821;51.988;6.020;2022-11-20T09:58:41;0.60;99.90
39067;DHT22;24821;51.988;6.020;2022-11-20T10:01:26;0.60;99.90
39067;DHT22;24821;51.988;6.020;2022-11-20T10:04:10;0.60;99.90
39067;DHT22;24821;51.988;6.020;2022-11-20T10:07:02;0.70;99.90
39067;DHT22;24821;51.988;6.020;2022-11-20T10:09:35;0.80;99.90
39067;DHT22;24821;51.988;6.020;2022-11-20T10:12:23;0.80;99.90
39067;DHT22;24821;51.988;6.020;2022-11-20T10:15:03;0.90;99.90
39067;DHT22;24821;51.988;6.020;2022-11-20T10:17:51;1.00;99.90
39067;DHT22;24821;51.988;6.020;2022-11-20T10:23:27;1.20;99.90
39067;DHT22;24821;51.988;6.020;2022-11-20T10:31:35;1.40;99.90
39067;DHT22;24821;51.988;6.020;2022-11-20T10:34:06;1.40;99.90
39067;DHT22;24821;51.988;6.020;2022-11-20T10:36:41;1.50;99.90
39067;DHT22;24821;51.988;6.020;2022-11-20T10:42:42;1.60;99.90
39067;DHT22;24821;51.988;6.020;2022-11-20T10:47:49;1.70;99.90
39067;DHT22;24821;51.988;6.020;2022-11-20T10:50:19;1.70;99.90
39067;DHT22;24821;51.988;6.020;2022-11-20T10:53:05;1.80;99.90
39067;DHT22;24821;51.988;6.020;2022-11-20T10:55:57;2.00;99.90
39067;DHT22;24821;51.988;6.020;2022-11-20T11:01:25;2.00;99.90
39067;DHT22;24821;51.988;6.020;2022-11-20T11:03:53;2.00;99.90
39067;DHT22;24821;51.988;6.020;2022-11-20T11:06:39;2.00;99.90
39067;DHT22;24821;51.988;6.020;2022-11-20T11:09:19;2.10;99.90
39067;DHT22;24821;51.988;6.020;2022-11-20T11:11:47;2.00;99.90
39067;DHT22;24821;51.988;6.020;2022-11-20T11:14:15;2.00;99.90
39067;DHT22;24821;51.988;6.020;2022-11-20T11:16:57;2.00;99.90
39067;DHT22;24821;51.988;6.020;2022-11-20T11:19:23;2.00;99.90
39067;DHT22;24821;51.988;6.020;2022-11-20T11:21:54;2.00;99.90
39067;DHT22;24821;51.988;6.020;2022-11-20T11:24:27;2.00;99.90
39067;DHT22;24821;51.988;6.020;2022-11-20T11:26:57;2.00;99.90
39067;DHT22;24821;51.988;6.020;2022-11-20T11:29:24;2.10;99.90
39067;DHT22;24821;51.988;6.020;2022-11-20T11:32:03;2.10;99.90
39067;DHT22;24821;51.988;6.020;2022-11-20T11:34:29;2.20;99.90
39067;DHT22;24821;51.988;6.020;2022-11-20T11:36:57;2.20;99.90
39067;DHT22;24821;51.988;6.020;2022-11-20T11:39:25;2.30;99.90
39067;DHT22;24821;51.988;6.020;2022-11-20T11:41:50;2.40;99.90
39067;DHT22;24821;51.988;6.020;2022-11-20T11:44:30;2.50;99.90
39067;DHT22;24821;51.988;6.020;2022-11-20T11:47:25;2.60;99.90
39067;DHT22;24821;51.988;6.020;2022-11-20T11:55:17;2.80;99.90
39067;DHT22;24821;51.988;6.020;2022-11-20T11:58:04;2.90;99.90
39067;DHT22;24821;51.988;6.020;2022-11-20T12:00:32;3.00;99.90
39067;DHT22;24821;51.988;6.020;2022-11-20T12:03:02;3.10;99.90
39067;DHT22;24821;51.988;6.020;2022-11-20T12:05:49;3.10;99.90
39067;DHT22;24821;51.988;6.020;2022-11-20T12:08:32;3.20;99.90
39067;DHT22;24821;51.988;6.020;2022-11-20T12:11:15;3.20;99.90
39067;DHT22;24821;51.988;6.020;2022-11-20T12:13:58;3.20;99.90
39067;DHT22;24821;51.988;6.020;2022-11-20T12:16:32;3.30;99.90
39067;DHT22;24821;51.988;6.020;2022-11-20T12:18:59;3.30;99.90
39067;DHT22;24821;51.988;6.020;2022-11-20T12:21:36;3.20;99.90
39067;DHT22;24821;51.988;6.020;2022-11-20T12:29:52;3.20;99.90
39067;DHT22;24821;51.988;6.020;2022-11-20T12:43:23;3.10;99.90
39067;DHT22;24821;51.988;6.020;2022-11-20T12:49:02;3.20;99.90
39067;DHT22;24821;51.988;6.020;2022-11-20T12:57:24;3.20;99.90
39067;DHT22;24821;51.988;6.020;2022-11-20T13:08:38;3.40;99.90
39067;DHT22;24821;51.988;6.020;2022-11-20T13:11:34;3.40;99.90
39067;DHT22;24821;51.988;6.020;2022-11-20T13:14:31;3.50;99.90
39067;DHT22;24821;51.988;6.020;2022-11-20T13:19:33;3.50;99.90
39067;DHT22;24821;51.988;6.020;2022-11-20T13:21:59;3.50;99.90
39067;DHT22;24821;51.988;6.020;2022-11-20T13:24:28;3.50;99.90
39067;DHT22;24821;51.988;6.020;2022-11-20T13:29:34;3.50;99.90
39067;DHT22;24821;51.988;6.020;2022-11-20T13:32:20;3.50;99.90
39067;DHT22;24821;51.988;6.020;2022-11-20T13:34:59;3.50;99.90
39067;DHT22;24821;51.988;6.020;2022-11-20T13:37:36;3.50;99.90
39067;DHT22;24821;51.988;6.020;2022-11-20T13:42:40;3.40;99.90
39067;DHT22;24821;51.988;6.020;2022-11-20T13:45:24;3.40;99.90
39067;DHT22;24821;51.988;6.020;2022-11-20T13:47:51;3.40;99.90
39067;DHT22;24821;51.988;6.020;2022-11-20T13:50:18;3.50;99.90
39067;DHT22;24821;51.988;6.020;2022-11-20T13:52:57;3.50;99.90
39067;DHT22;24821;51.988;6.020;2022-11-20T13:55:41;3.50;99.90
39067;DHT22;24821;51.988;6.020;2022-11-20T14:01:21;3.50;99.90
39067;DHT22;24821;51.988;6.020;2022-11-20T14:03:48;3.50;99.90
39067;DHT22;24821;51.988;6.020;2022-11-20T14:06:41;3.50;99.90
39067;DHT22;24821;51.988;6.020;2022-11-20T14:09:12;3.50;99.90
39067;DHT22;24821;51.988;6.020;2022-11-20T14:11:46;3.50;99.90
39067;DHT22;24821;51.988;6.020;2022-11-20T14:14:25;3.50;99.90
39067;DHT22;24821;51.988;6.020;2022-11-20T14:16:52;3.50;99.90
39067;DHT22;24821;51.988;6.020;2022-11-20T14:19:37;3.50;99.90
39067;DHT22;24821;51.988;6.020;2022-11-20T14:22:29;3.50;99.90
39067;DHT22;24821;51.988;6.020;2022-11-20T14:25:04;3.50;99.90
39067;DHT22;24821;51.988;6.020;2022-11-20T14:27:34;3.50;99.90
39067;DHT22;24821;51.988;6.020;2022-11-20T14:30:01;3.50;99.90
39067;DHT22;24821;51.988;6.020;2022-11-20T14:32:29;3.50;99.90
39067;DHT22;24821;51.988;6.020;2022-11-20T14:35:01;3.50;99.90
39067;DHT22;24821;51.988;6.020;2022-11-20T14:37:31;3.50;99.90
39067;DHT22;24821;51.988;6.020;2022-11-20T14:39:58;3.60;99.90
39067;DHT22;24821;51.988;6.020;2022-11-20T14:42:26;3.50;99.90
39067;DHT22;24821;51.988;6.020;2022-11-20T14:44:55;3.60;99.90
39067;DHT22;24821;51.988;6.020;2022-11-20T14:47:27;3.60;99.90
39067;DHT22;24821;51.988;6.020;2022-11-20T14:49:55;3.60;99.90
39067;DHT22;24821;51.988;6.020;2022-11-20T14:52:26;3.60;99.90
39067;DHT22;24821;51.988;6.020;2022-11-20T14:54:57;3.60;99.90
39067;DHT22;24821;51.988;6.020;2022-11-20T14:57:27;3.60;99.90
39067;DHT22;24821;51.988;6.020;2022-11-20T15:02:42;3.60;99.90
39067;DHT22;24821;51.988;6.020;2022-11-20T15:05:08;3.60;99.90
39067;DHT22;24821;51.988;6.020;2022-11-20T15:07:36;3.70;99.90
39067;DHT22;24821;51.988;6.020;2022-11-20T15:10:08;3.70;99.90
39067;DHT22;24821;51.988;6.020;2022-11-20T15:12:40;3.70;99.90
39067;DHT22;24821;51.988;6.020;2022-11-20T15:15:08;3.70;99.90
39067;DHT22;24821;51.988;6.020;2022-11-20T15:17:37;3.70;99.90
39067;DHT22;24821;51.988;6.020;2022-11-20T15:20:12;3.70;99.90
39067;DHT22;24821;51.988;6.020;2022-11-20T15:22:38;3.80;99.90
39067;DHT22;24821;51.988;6.020;2022-11-20T15:25:17;3.80;99.90
39067;DHT22;24821;51.988;6.020;2022-11-20T15:27:44;3.80;99.90
39067;DHT22;24821;51.988;6.020;2022-11-20T15:30:15;3.80;99.90
39067;DHT22;24821;51.988;6.020;2022-11-20T15:32:42;3.80;99.90
39067;DHT22;24821;51.988;6.020;2022-11-20T15:35:08;3.80;99.90
39067;DHT22;24821;51.988;6.020;2022-11-20T15:37:34;3.80;99.90
39067;DHT22;24821;51.988;6.020;2022-11-20T15:39:59;3.80;99.90
39067;DHT22;24821;51.988;6.020;2022-11-20T15:42:25;3.90;99.90
39067;DHT22;24821;51.988;6.020;2022-11-20T15:44:50;3.90;99.90
39067;DHT22;24821;51.988;6.020;2022-11-20T15:47:16;3.80;99.90
39067;DHT22;24821;51.988;6.020;2022-11-20T15:49:43;3.80;99.90
39067;DHT22;24821;51.988;6.020;2022-11-20T15:52:09;3.80;99.90
39067;DHT22;24821;51.988;6.020;2022-11-20T15:54:35;3.80;99.90
39067;DHT22;24821;51.988;6.020;2022-11-20T15:57:01;3.90;99.90
39067;DHT22;24821;51.988;6.020;2022-11-20T15:59:28;3.80;99.90
39067;DHT22;24821;51.988;6.020;2022-11-20T16:01:53;3.80;99.90
39067;DHT22;24821;51.988;6.020;2022-11-20T16:04:19;3.90;99.90
39067;DHT22;24821;51.988;6.020;2022-11-20T16:06:44;3.90;99.90
39067;DHT22;24821;51.988;6.020;2022-11-20T16:09:10;3.90;99.90
39067;DHT22;24821;51.988;6.020;2022-11-20T16:11:36;4.00;99.90
39067;DHT22;24821;51.988;6.020;2022-11-20T16:14:02;4.00;99.90
39067;DHT22;24821;51.988;6.020;2022-11-20T16:16:47;4.00;99.90
39067;DHT22;24821;51.988;6.020;2022-11-20T16:19:13;4.00;99.90
39067;DHT22;24821;51.988;6.020;2022-11-20T16:21:40;4.00;99.90
39067;DHT22;24821;51.988;6.020;2022-11-20T16:24:08;4.10;99.90
39067;DHT22;24821;51.988;6.020;2022-11-20T16:26:35;4.00;99.90
39067;DHT22;24821;51.988;6.020;2022-11-20T16:29:02;4.00;99.90
39067;DHT22;24821;51.988;6.020;2022-11-20T16:31:29;4.00;99.90
39067;DHT22;24821;51.988;6.020;2022-11-20T16:34:00;4.00;99.90
39067;DHT22;24821;51.988;6.020;2022-11-20T16:36:27;4.00;99.90
39067;DHT22;24821;51.988;6.020;2022-11-20T16:38:54;4.00;99.90
39067;DHT22;24821;51.988;6.020;2022-11-20T16:41:20;4.00;99.90
39067;DHT22;24821;51.988;6.020;2022-11-20T16:43:51;4.00;99.90
39067;DHT22;24821;51.988;6.020;2022-11-20T16:46:18;4.00;99.90
39067;DHT22;24821;51.988;6.020;2022-11-20T16:48:44;4.00;99.90
39067;DHT22;24821;51.988;6.020;2022-11-20T16:51:12;4.10;99.90
39067;DHT22;24821;51.988;6.020;2022-11-20T16:53:38;4.10;99.90
39067;DHT22;24821;51.988;6.020;2022-11-20T16:56:15;4.10;99.90
39067;DHT22;24821;51.988;6.020;2022-11-20T16:58:45;4.10;99.90
39067;DHT22;24821;51.988;6.020;2022-11-20T17:01:14;4.10;99.90
39067;DHT22;24821;51.988;6.020;2022-11-20T17:03:44;4.10;99.90
39067;DHT22;24821;51.988;6.020;2022-11-20T17:06:15;4.10;99.90
39067;DHT22;24821;51.988;6.020;2022-11-20T17:08:42;4.10;99.90
39067;DHT22;24821;51.988;6.020;2022-11-20T17:11:08;4.10;99.90
39067;DHT22;24821;51.988;6.020;2022-11-20T17:13:35;4.10;99.90
39067;DHT22;24821;51.988;6.020;2022-11-20T17:16:02;4.20;99.90
39067;DHT22;24821;51.988;6.020;2022-11-20T17:18:28;4.10;99.90
39067;DHT22;24821;51.988;6.020;2022-11-20T17:20:54;4.20;99.90